Doddington, United Kingdom
Current Conditions -  °F | °C
As of 1:58 PM on Monday 20 Oct 2014 (Local Time) from EGUN Reporting Station
Overcast Overcast  
Wind Chill: 61°   Ceiling: 3500
Heat Index: 61°   Visibility: 6mi
Dew Point: 61°   Wind: 12mph
Humidity: 100%   Direction: 240°WSW
Pressure: 29.93"   Gusts: 20mph
Location:  52.5°N, 0.06°E
Report Text: EGUN 201258Z AUTO 24010G17KT 9999 SCT028 BKN035 BKN042 OVC055 16/16 A2993 RMK AO2 SLP138 T01610161 $
Loading
Personal Weather Stations






























Interactive Weather Map New forecast layout! Learn more

10-Day Weather Forecast

Advertisements
Track Severe Weather on mobile